Time;durP1;ratioP1;P1;durP2;ratioP2;P2;SDS_P1;SDS_P2;PMS_P1;PMS_P2;Temp;Humidity;BMP_temperature;BMP_pressure;BME280_temperature;BME280_humidity;BME280_pressure;Samples;Min_cycle;Max_cycle;Signal;HPM_P1;HPM_P2
2022/07/12 00:00:48;;;;;;;;;;;13.70;99.90;;;;;;5073313;28;19909;-65
2022/07/12 00:03:13;;;;;;;;;;;13.70;99.90;;;;;;5073317;28;20373;-65
2022/07/12 00:05:39;;;;;;;;;;;13.70;99.90;;;;;;5055393;28;20251;-65
2022/07/12 00:08:06;;;;;;;;;;;13.60;99.90;;;;;;5073359;28;19944;-65
2022/07/12 00:10:32;;;;;;;;;;;13.60;99.90;;;;;;5073258;28;20007;-65
2022/07/12 00:12:57;;;;;;;;;;;13.60;99.90;;;;;;5072853;28;19966;-65
2022/07/12 00:15:23;;;;;;;;;;;13.60;99.90;;;;;;5073231;28;20313;-65
2022/07/12 00:17:49;;;;;;;;;;;13.60;99.90;;;;;;5072827;28;19999;-65
2022/07/12 00:20:14;;;;;;;;;;;13.50;99.90;;;;;;5074261;28;19908;-65
2022/07/12 00:22:40;;;;;;;;;;;13.50;99.90;;;;;;5076483;28;20255;-65
2022/07/12 00:25:05;;;;;;;;;;;13.50;99.90;;;;;;5076705;28;20007;-66
2022/07/12 00:27:31;;;;;;;;;;;13.40;99.90;;;;;;5076386;28;19908;-66
2022/07/12 00:29:56;;;;;;;;;;;13.40;99.90;;;;;;5076351;28;20395;-65
2022/07/12 00:32:22;;;;;;;;;;;13.30;99.90;;;;;;5076496;28;19916;-65
2022/07/12 00:34:47;;;;;;;;;;;13.30;99.90;;;;;;5076557;28;19909;-65
2022/07/12 00:37:13;;;;;;;;;;;13.30;99.90;;;;;;5076539;28;20287;-65
2022/07/12 00:39:38;;;;;;;;;;;13.20;99.90;;;;;;5058587;28;19915;-65
2022/07/12 00:42:04;;;;;;;;;;;13.30;99.90;;;;;;5076155;28;20359;-65
2022/07/12 00:44:30;;;;;;;;;;;13.20;99.90;;;;;;5076091;28;19909;-66
2022/07/12 00:46:56;;;;;;;;;;;13.20;99.90;;;;;;5058139;28;19908;-66
2022/07/12 00:49:23;;;;;;;;;;;13.20;99.90;;;;;;5076011;28;20007;-65
2022/07/12 00:51:48;;;;;;;;;;;13.20;99.90;;;;;;5076287;28;20379;-65
2022/07/12 00:54:14;;;;;;;;;;;13.10;99.90;;;;;;5076107;28;19952;-65
2022/07/12 00:56:40;;;;;;;;;;;13.00;99.90;;;;;;5075894;28;19934;-65
2022/07/12 00:59:06;;;;;;;;;;;13.00;99.90;;;;;;5075793;28;19908;-65
2022/07/12 01:01:31;;;;;;;;;;;13.00;99.90;;;;;;5076048;28;19915;-66
2022/07/12 01:03:56;;;;;;;;;;;12.90;99.90;;;;;;5075984;28;19912;-65
2022/07/12 01:06:22;;;;;;;;;;;12.90;99.90;;;;;;5075699;28;19950;-65
2022/07/12 01:08:48;;;;;;;;;;;12.90;99.90;;;;;;5057789;28;19935;-65
2022/07/12 01:11:14;;;;;;;;;;;12.90;99.90;;;;;;5075923;28;19909;-65
2022/07/12 01:13:40;;;;;;;;;;;12.80;99.90;;;;;;5075346;28;19931;-65
2022/07/12 01:16:07;;;;;;;;;;;12.80;99.90;;;;;;5075765;28;19908;-65
2022/07/12 01:18:33;;;;;;;;;;;12.70;99.90;;;;;;5075727;28;20014;-65
2022/07/12 01:21:02;;;;;;;;;;;12.70;99.90;;;;;;5075363;28;19912;-65
2022/07/12 01:23:28;;;;;;;;;;;12.70;99.90;;;;;;5057432;28;19908;-65
2022/07/12 01:25:53;;;;;;;;;;;12.70;99.90;;;;;;5075579;28;20379;-65
2022/07/12 01:28:19;;;;;;;;;;;12.70;99.90;;;;;;5075515;28;20362;-65
2022/07/12 01:30:45;;;;;;;;;;;12.70;99.90;;;;;;5075441;28;19959;-65
2022/07/12 01:33:10;;;;;;;;;;;12.70;99.90;;;;;;5075361;28;19912;-65
2022/07/12 01:35:36;;;;;;;;;;;12.70;99.90;;;;;;5075135;28;19961;-65
2022/07/12 01:38:01;;;;;;;;;;;12.60;99.90;;;;;;5075353;28;19908;-65
2022/07/12 01:40:27;;;;;;;;;;;12.60;99.90;;;;;;5074991;28;20358;-65
2022/07/12 01:42:53;;;;;;;;;;;12.60;99.90;;;;;;5075238;28;19916;-65
2022/07/12 01:45:18;;;;;;;;;;;12.60;99.90;;;;;;5074908;28;19909;-65
2022/07/12 01:47:44;;;;;;;;;;;12.60;99.90;;;;;;5075158;28;19913;-65
2022/07/12 01:50:10;;;;;;;;;;;12.50;99.90;;;;;;5074853;28;19915;-65
2022/07/12 01:52:36;;;;;;;;;;;12.50;99.90;;;;;;5074983;28;19917;-65
2022/07/12 01:55:02;;;;;;;;;;;12.50;99.90;;;;;;5075010;28;20355;-65
2022/07/12 01:57:28;;;;;;;;;;;12.50;99.90;;;;;;5074920;28;19909;-65
2022/07/12 01:59:53;;;;;;;;;;;12.40;99.90;;;;;;5074662;28;19923;-65
2022/07/12 02:02:19;;;;;;;;;;;12.40;99.90;;;;;;5074556;28;19909;-65
2022/07/12 02:04:44;;;;;;;;;;;12.40;99.90;;;;;;5074541;28;19995;-65
2022/07/12 02:07:10;;;;;;;;;;;12.40;99.90;;;;;;5074582;28;19908;-65
2022/07/12 02:09:35;;;;;;;;;;;12.30;99.90;;;;;;5074691;28;19912;-66
2022/07/12 02:12:01;;;;;;;;;;;12.30;99.90;;;;;;5074168;28;20015;-65
2022/07/12 02:14:26;;;;;;;;;;;12.30;99.90;;;;;;5074544;28;19908;-65
2022/07/12 02:16:52;;;;;;;;;;;12.30;99.90;;;;;;5074341;28;19916;-65
2022/07/12 02:19:18;;;;;;;;;;;12.40;99.90;;;;;;5074258;28;19909;-65
2022/07/12 02:21:43;;;;;;;;;;;12.30;99.90;;;;;;5074229;28;19909;-65
2022/07/12 02:24:09;;;;;;;;;;;12.30;99.90;;;;;;5074219;28;20367;-65
2022/07/12 02:26:35;;;;;;;;;;;12.30;99.90;;;;;;5074406;28;20351;-65
2022/07/12 02:29:01;;;;;;;;;;;12.30;99.90;;;;;;5074078;28;19914;-65
2022/07/12 02:31:27;;;;;;;;;;;12.30;99.90;;;;;;5074301;28;19908;-65
2022/07/12 02:33:52;;;;;;;;;;;12.30;99.90;;;;;;5074233;28;20339;-65
2022/07/12 02:36:17;;;;;;;;;;;12.20;99.90;;;;;;5073976;28;20302;-65
2022/07/12 02:38:43;;;;;;;;;;;12.20;99.90;;;;;;5074202;28;19914;-65
2022/07/12 02:41:08;;;;;;;;;;;12.20;99.90;;;;;;5073876;28;20007;-65
2022/07/12 02:43:34;;;;;;;;;;;12.20;99.90;;;;;;5073769;28;19915;-65
2022/07/12 02:46:07;;;;;;;;;;;12.20;99.90;;;;;;5073771;28;19909;-65
2022/07/12 02:48:33;;;;;;;;;;;12.20;99.90;;;;;;5074096;28;19909;-65
2022/07/12 02:50:59;;;;;;;;;;;12.10;99.90;;;;;;5055836;28;20014;-65
2022/07/12 02:53:25;;;;;;;;;;;12.10;99.90;;;;;;5073982;28;19912;-66
2022/07/12 02:55:50;;;;;;;;;;;12.10;99.90;;;;;;5073989;28;19915;-65
2022/07/12 02:58:16;;;;;;;;;;;12.10;99.90;;;;;;5055869;28;20354;-65
2022/07/12 03:00:44;;;;;;;;;;;12.10;99.90;;;;;;5074016;28;19908;-65
2022/07/12 03:03:10;;;;;;;;;;;12.10;99.90;;;;;;5073641;28;19944;-65
2022/07/12 03:05:36;;;;;;;;;;;12.00;99.90;;;;;;5073639;28;19915;-65
2022/07/12 03:08:03;;;;;;;;;;;12.00;99.90;;;;;;5074194;28;19912;-65
2022/07/12 03:10:28;;;;;;;;;;;12.00;99.90;;;;;;5073831;28;19909;-65
2022/07/12 03:12:54;;;;;;;;;;;12.00;99.90;;;;;;5073289;28;19920;-65
2022/07/12 03:15:19;;;;;;;;;;;12.00;99.90;;;;;;5073479;28;20361;-65
2022/07/12 03:17:45;;;;;;;;;;;12.00;99.90;;;;;;5073472;28;19962;-65
2022/07/12 03:20:11;;;;;;;;;;;11.90;99.90;;;;;;5073770;28;19909;-65
2022/07/12 03:22:37;;;;;;;;;;;11.90;99.90;;;;;;5073464;28;20321;-66
2022/07/12 03:25:03;;;;;;;;;;;12.00;99.90;;;;;;5073705;28;19908;-65
2022/07/12 03:27:28;;;;;;;;;;;11.90;99.90;;;;;;5073382;28;20382;-65
2022/07/12 03:29:54;;;;;;;;;;;11.90;99.90;;;;;;5073594;28;20251;-65
2022/07/12 03:32:19;;;;;;;;;;;11.90;99.90;;;;;;5073248;28;19908;-65
2022/07/12 03:34:45;;;;;;;;;;;11.90;99.90;;;;;;5073603;28;19912;-65
2022/07/12 03:37:10;;;;;;;;;;;11.90;99.90;;;;;;5073539;28;20278;-65
2022/07/12 03:39:36;;;;;;;;;;;11.90;99.90;;;;;;5073364;28;20389;-65
2022/07/12 03:42:01;;;;;;;;;;;11.90;99.90;;;;;;5073247;28;20007;-65
2022/07/12 03:44:30;;;;;;;;;;;11.90;99.90;;;;;;5073519;28;19916;-66
2022/07/12 03:46:55;;;;;;;;;;;11.90;99.90;;;;;;5073477;28;19934;-65
2022/07/12 03:49:21;;;;;;;;;;;12.00;99.90;;;;;;5073205;28;20005;-65
2022/07/12 03:51:46;;;;;;;;;;;12.00;99.90;;;;;;5073397;28;19909;-65
2022/07/12 03:54:12;;;;;;;;;;;12.10;99.90;;;;;;5073100;28;19920;-65
2022/07/12 03:59:22;;;;;;;;;;;12.10;99.90;;;;;;5076761;28;19909;-65
2022/07/12 04:01:48;;;;;;;;;;;12.20;99.90;;;;;;5076892;28;19908;-65
2022/07/12 04:04:13;;;;;;;;;;;12.20;99.90;;;;;;5077128;28;19908;-66
2022/07/12 04:06:39;;;;;;;;;;;12.30;99.90;;;;;;5077054;28;19957;-65
2022/07/12 04:09:05;;;;;;;;;;;12.40;99.90;;;;;;5077041;28;20278;-65
2022/07/12 04:11:31;;;;;;;;;;;12.40;99.90;;;;;;5076991;28;19908;-65
2022/07/12 04:13:56;;;;;;;;;;;12.50;99.90;;;;;;5076429;28;19928;-65
2022/07/12 04:16:22;;;;;;;;;;;12.60;99.90;;;;;;5076877;28;19909;-65
2022/07/12 04:18:47;;;;;;;;;;;12.70;99.90;;;;;;5076544;28;19908;-65
2022/07/12 04:21:13;;;;;;;;;;;12.80;99.90;;;;;;5076521;28;19958;-65
2022/07/12 04:23:38;;;;;;;;;;;12.90;99.90;;;;;;5076552;28;19908;-65
2022/07/12 04:26:04;;;;;;;;;;;13.00;99.90;;;;;;5076740;28;20294;-65
2022/07/12 04:28:29;;;;;;;;;;;13.10;99.90;;;;;;5076428;28;19909;-65
2022/07/12 04:30:55;;;;;;;;;;;13.30;99.90;;;;;;5076370;28;19916;-65
2022/07/12 04:33:20;;;;;;;;;;;13.40;99.90;;;;;;5076527;28;19912;-65
2022/07/12 04:35:46;;;;;;;;;;;13.70;99.90;;;;;;5076282;28;19995;-65
2022/07/12 04:38:11;;;;;;;;;;;13.90;99.90;;;;;;5076520;28;19958;-65
2022/07/12 04:40:37;;;;;;;;;;;14.10;99.90;;;;;;5076492;28;19915;-65
2022/07/12 04:43:03;;;;;;;;;;;14.40;99.90;;;;;;5076451;28;20422;-65
2022/07/12 04:45:28;;;;;;;;;;;15.50;99.90;;;;;;5058249;28;19942;-65
2022/07/12 04:47:54;;;;;;;;;;;17.30;99.90;;;;;;5058465;28;19908;-66
2022/07/12 04:50:19;;;;;;;;;;;18.60;99.90;;;;;;5075972;28;20350;-66
2022/07/12 04:52:45;;;;;;;;;;;19.50;99.90;;;;;;5076193;28;19916;-66
2022/07/12 04:55:10;;;;;;;;;;;20.80;99.90;;;;;;5075960;28;19909;-66
2022/07/12 04:57:36;;;;;;;;;;;21.50;99.90;;;;;;5075900;28;20366;-67
2022/07/12 05:00:03;;;;;;;;;;;22.20;99.90;;;;;;5075820;28;19909;-64
2022/07/12 05:02:29;;;;;;;;;;;22.90;99.90;;;;;;5076050;28;19908;-65
2022/07/12 05:04:54;;;;;;;;;;;23.30;99.90;;;;;;5076020;28;19908;-65
2022/07/12 05:07:20;;;;;;;;;;;23.80;99.90;;;;;;5075641;28;20251;-65
2022/07/12 05:09:45;;;;;;;;;;;23.80;99.90;;;;;;5075933;28;19912;-66
2022/07/12 05:12:11;;;;;;;;;;;23.70;99.90;;;;;;5075497;28;20069;-66
2022/07/12 05:14:36;;;;;;;;;;;23.80;99.90;;;;;;5057619;28;19962;-65
2022/07/12 05:17:02;;;;;;;;;;;23.80;99.90;;;;;;5075305;28;19908;-65
2022/07/12 05:19:27;;;;;;;;;;;24.10;99.90;;;;;;5075449;28;19909;-66
2022/07/12 05:21:53;;;;;;;;;;;24.00;99.90;;;;;;5075708;28;20325;-65
2022/07/12 05:24:18;;;;;;;;;;;23.70;99.90;;;;;;5075338;28;19909;-65
2022/07/12 05:26:44;;;;;;;;;;;23.80;99.90;;;;;;5075270;28;20003;-66
2022/07/12 05:29:10;;;;;;;;;;;24.50;99.90;;;;;;5075348;28;19909;-65
2022/07/12 05:31:35;;;;;;;;;;;24.90;99.90;;;;;;5075452;28;19913;-66
2022/07/12 05:34:01;;;;;;;;;;;25.40;99.90;;;;;;5075384;28;19918;-65
2022/07/12 05:36:26;;;;;;;;;;;25.80;99.90;;;;;;5075390;28;20325;-66
2022/07/12 05:38:52;;;;;;;;;;;26.20;99.90;;;;;;5075334;28;20262;-66
2022/07/12 05:41:17;;;;;;;;;;;26.60;99.90;;;;;;5074974;28;19909;-65
2022/07/12 05:43:44;;;;;;;;;;;26.80;99.90;;;;;;5075232;28;19936;-65
2022/07/12 05:46:09;;;;;;;;;;;27.00;99.90;;;;;;5075165;28;19914;-65
2022/07/12 05:48:36;;;;;;;;;;;27.90;99.90;;;;;;5075138;28;19913;-65
2022/07/12 05:53:47;;;;;;;;;;;27.80;99.90;;;;;;5074478;28;19913;-66
2022/07/12 05:56:15;;;;;;;;;;;28.00;99.90;;;;;;5056778;28;20377;-65
2022/07/12 05:58:40;;;;;;;;;;;27.60;99.90;;;;;;5074612;28;20096;-66
2022/07/12 06:01:06;;;;;;;;;;;28.60;98.80;;;;;;5074622;28;19947;-65
2022/07/12 06:03:32;;;;;;;;;;;29.10;96.90;;;;;;5074456;28;19909;-66
2022/07/12 06:05:57;;;;;;;;;;;29.50;96.40;;;;;;5074545;28;19908;-65
2022/07/12 06:08:23;;;;;;;;;;;29.50;94.70;;;;;;5074748;28;19908;-66
2022/07/12 06:10:48;;;;;;;;;;;28.70;95.40;;;;;;5074634;28;20256;-66
2022/07/12 06:13:14;;;;;;;;;;;28.20;96.30;;;;;;5074245;28;20367;-66
2022/07/12 06:15:39;;;;;;;;;;;28.30;97.70;;;;;;5056594;28;19909;-65
2022/07/12 06:18:05;;;;;;;;;;;28.20;97.90;;;;;;5073693;28;20335;-66
2022/07/12 06:20:30;;;;;;;;;;;29.40;95.20;;;;;;5073846;28;19962;-65
2022/07/12 06:22:56;;;;;;;;;;;29.10;95.90;;;;;;5074074;28;20003;-66
2022/07/12 06:25:22;;;;;;;;;;;28.70;96.20;;;;;;5074016;28;19940;-66
2022/07/12 06:27:48;;;;;;;;;;;29.10;95.20;;;;;;5074143;28;20360;-66
2022/07/12 06:30:16;;;;;;;;;;;28.70;95.80;;;;;;5056116;28;19943;-66
2022/07/12 06:32:42;;;;;;;;;;;29.30;95.10;;;;;;5074255;28;19919;-66
2022/07/12 06:35:07;;;;;;;;;;;29.50;94.10;;;;;;5074045;28;19909;-66
2022/07/12 06:37:33;;;;;;;;;;;28.50;94.90;;;;;;5055815;28;19931;-66
2022/07/12 06:39:59;;;;;;;;;;;29.00;95.90;;;;;;5074260;28;20380;-66
2022/07/12 06:42:24;;;;;;;;;;;28.60;94.10;;;;;;5074114;28;19915;-66
2022/07/12 06:44:50;;;;;;;;;;;29.10;94.70;;;;;;5073544;28;19909;-66
2022/07/12 06:47:15;;;;;;;;;;;29.70;93.10;;;;;;5074003;28;19913;-66
2022/07/12 06:49:41;;;;;;;;;;;30.60;92.50;;;;;;5073747;28;19909;-66
2022/07/12 06:52:06;;;;;;;;;;;30.60;91.70;;;;;;5073612;28;19908;-67
2022/07/12 06:54:32;;;;;;;;;;;30.30;91.90;;;;;;5084791;28;19916;-67
2022/07/12 06:56:57;;;;;;;;;;;30.30;92.10;;;;;;5093485;28;20094;-67
2022/07/12 06:59:23;;;;;;;;;;;29.90;91.40;;;;;;5094023;28;19908;-68
2022/07/12 07:01:49;;;;;;;;;;;29.30;92.80;;;;;;5094044;28;19912;-67
2022/07/12 07:04:15;;;;;;;;;;;29.90;91.70;;;;;;5093785;28;19995;-67
2022/07/12 07:06:40;;;;;;;;;;;29.00;91.50;;;;;;5093789;28;20399;-67
2022/07/12 07:09:09;;;;;;;;;;;28.50;93.60;;;;;;5093991;28;19919;-67
2022/07/12 07:11:35;;;;;;;;;;;28.00;96.40;;;;;;5093697;28;19954;-67
2022/07/12 07:14:01;;;;;;;;;;;28.60;94.40;;;;;;5093267;28;20011;-68
2022/07/12 07:16:26;;;;;;;;;;;28.90;92.70;;;;;;5058696;28;19970;-68
2022/07/12 07:18:52;;;;;;;;;;;28.50;93.10;;;;;;5093828;28;19908;-68
2022/07/12 07:21:17;;;;;;;;;;;28.70;93.10;;;;;;5093513;28;19931;-68
2022/07/12 07:23:43;;;;;;;;;;;29.00;93.10;;;;;;5093408;28;19999;-67
2022/07/12 07:26:09;;;;;;;;;;;28.60;92.10;;;;;;5093816;28;19908;-68
2022/07/12 07:30:51;;;;;;;;;;;27.50;94.80;;;;;;5093867;28;19963;-67
2022/07/12 07:31:19;;;;;;;;;;;26.80;96.30;;;;;;5097483;28;19930;-67
2022/07/12 07:33:46;;;;;;;;;;;27.30;95.70;;;;;;5097575;28;19916;-67
2022/07/12 07:36:11;;;;;;;;;;;28.30;94.70;;;;;;5097890;28;19908;-67
2022/07/12 07:38:37;;;;;;;;;;;29.50;92.50;;;;;;5097577;28;20003;-66
2022/07/12 07:41:02;;;;;;;;;;;28.20;93.00;;;;;;5097370;28;19912;-67
2022/07/12 07:43:30;;;;;;;;;;;27.80;94.30;;;;;;5097410;28;19912;-67
2022/07/12 07:45:56;;;;;;;;;;;28.50;95.40;;;;;;5079549;28;19912;-67
2022/07/12 07:48:22;;;;;;;;;;;27.70;94.80;;;;;;5097619;28;20315;-67
2022/07/12 07:50:50;;;;;;;;;;;27.40;95.70;;;;;;5097523;28;19940;-67
2022/07/12 07:53:16;;;;;;;;;;;28.10;95.70;;;;;;5097354;28;19969;-68
2022/07/12 07:55:41;;;;;;;;;;;30.60;91.50;;;;;;5061934;28;19912;-68
2022/07/12 07:58:07;;;;;;;;;;;30.80;91.80;;;;;;5097114;28;19914;-68
2022/07/12 08:00:32;;;;;;;;;;;30.70;90.00;;;;;;5079396;28;19916;-67
2022/07/12 08:02:58;;;;;;;;;;;29.90;91.40;;;;;;5097030;28;20319;-68
2022/07/12 08:05:24;;;;;;;;;;;30.60;90.50;;;;;;5097323;28;19957;-67
2022/07/12 08:07:49;;;;;;;;;;;31.10;89.90;;;;;;5096610;28;19974;-67
2022/07/12 08:10:15;;;;;;;;;;;32.40;84.70;;;;;;5096908;28;19908;-67
2022/07/12 08:12:40;;;;;;;;;;;32.80;82.40;;;;;;5096674;28;20039;-68
2022/07/12 08:15:06;;;;;;;;;;;33.20;78.80;;;;;;5096871;28;19908;-67
2022/07/12 08:17:32;;;;;;;;;;;32.60;78.40;;;;;;5079025;28;19989;-67
2022/07/12 08:19:57;;;;;;;;;;;31.80;80.00;;;;;;5096750;28;19915;-67
2022/07/12 08:22:23;;;;;;;;;;;30.90;82.10;;;;;;5078556;28;19915;-68
2022/07/12 08:24:49;;;;;;;;;;;29.90;85.10;;;;;;5096647;28;19930;-67
2022/07/12 08:27:15;;;;;;;;;;;30.30;85.10;;;;;;5096860;28;19958;-67
2022/07/12 08:29:41;;;;;;;;;;;30.40;85.60;;;;;;5096678;28;19909;-67
2022/07/12 08:32:07;;;;;;;;;;;31.00;85.40;;;;;;5096558;28;19911;-68
2022/07/12 08:34:33;;;;;;;;;;;30.60;83.30;;;;;;5096483;28;19916;-68
2022/07/12 08:36:59;;;;;;;;;;;31.30;82.80;;;;;;5077771;28;19959;-69
2022/07/12 08:39:24;;;;;;;;;;;31.70;80.50;;;;;;5096009;28;20362;-68
2022/07/12 08:41:50;;;;;;;;;;;30.70;84.00;;;;;;5095802;28;19915;-68
2022/07/12 08:44:15;;;;;;;;;;;31.80;81.60;;;;;;5096152;28;20381;-68
2022/07/12 08:46:41;;;;;;;;;;;31.20;81.80;;;;;;5096346;28;19908;-69
2022/07/12 08:49:09;;;;;;;;;;;31.80;80.80;;;;;;5096163;28;19908;-67
2022/07/12 08:51:35;;;;;;;;;;;32.40;78.90;;;;;;5096475;28;19915;-69
2022/07/12 08:54:08;;;;;;;;;;;33.10;77.50;;;;;;5095783;28;20302;-67
2022/07/12 08:56:37;;;;;;;;;;;30.30;82.70;;;;;;5077967;28;19931;-67
2022/07/12 08:59:10;;;;;;;;;;;29.70;85.00;;;;;;5096311;28;19991;-67
2022/07/12 09:01:53;;;;;;;;;;;29.50;88.00;;;;;;5095919;28;19912;-67
2022/07/12 09:04:20;;;;;;;;;;;28.90;87.50;;;;;;5095848;28;19930;-67
2022/07/12 09:06:46;;;;;;;;;;;28.10;90.10;;;;;;5095162;28;19916;-67
2022/07/12 09:09:24;;;;;;;;;;;28.70;90.00;;;;;;5096090;28;19908;-67
2022/07/12 09:11:50;;;;;;;;;;;29.80;86.30;;;;;;5095815;28;19973;-67
2022/07/12 09:14:18;;;;;;;;;;;31.10;84.00;;;;;;5095722;28;19920;-67
2022/07/12 09:16:46;;;;;;;;;;;29.90;85.30;;;;;;5095727;28;19909;-67
2022/07/12 09:19:13;;;;;;;;;;;29.90;86.30;;;;;;5077987;28;19935;-67
2022/07/12 09:21:45;;;;;;;;;;;30.30;86.50;;;;;;5095507;28;19908;-67
2022/07/12 09:24:10;;;;;;;;;;;30.50;83.10;;;;;;5095659;28;19978;-68
2022/07/12 09:26:38;;;;;;;;;;;30.60;82.30;;;;;;5095296;28;19913;-68
2022/07/12 09:29:06;;;;;;;;;;;30.40;83.10;;;;;;5077289;28;19984;-67
2022/07/12 09:31:40;;;;;;;;;;;29.90;84.70;;;;;;5095630;28;19908;-67
2022/07/12 09:36:54;;;;;;;;;;;29.60;84.70;;;;;;5094744;28;19908;-68
2022/07/12 09:39:22;;;;;;;;;;;31.10;82.60;;;;;;5095441;28;19909;-68
2022/07/12 09:41:47;;;;;;;;;;;31.10;78.10;;;;;;5094954;28;20358;-67
2022/07/12 09:44:13;;;;;;;;;;;31.00;81.30;;;;;;5095309;28;19909;-67
2022/07/12 09:46:39;;;;;;;;;;;31.40;78.50;;;;;;5095351;28;20324;-68
2022/07/12 09:49:05;;;;;;;;;;;31.80;77.70;;;;;;5076756;28;20331;-68
2022/07/12 09:51:32;;;;;;;;;;;30.80;78.80;;;;;;5094969;28;19908;-68
2022/07/12 09:54:01;;;;;;;;;;;31.30;77.20;;;;;;5093660;28;19954;-68
2022/07/12 09:56:27;;;;;;;;;;;31.30;76.90;;;;;;5095118;28;20324;-68
2022/07/12 09:58:55;;;;;;;;;;;31.00;77.20;;;;;;5095127;28;19951;-67
2022/07/12 10:01:21;;;;;;;;;;;31.10;77.60;;;;;;5076495;28;19915;-67
2022/07/12 10:03:47;;;;;;;;;;;31.70;77.20;;;;;;5094704;28;19908;-67
2022/07/12 10:06:23;;;;;;;;;;;30.40;78.00;;;;;;5076518;28;19944;-67
2022/07/12 10:08:49;;;;;;;;;;;30.00;80.90;;;;;;5094653;28;19909;-67
2022/07/12 10:11:14;;;;;;;;;;;29.60;85.10;;;;;;5094857;28;19915;-68
2022/07/12 10:13:40;;;;;;;;;;;30.30;80.20;;;;;;5094320;28;20413;-67
2022/07/12 10:16:08;;;;;;;;;;;30.30;79.20;;;;;;5094688;28;19993;-67
2022/07/12 10:18:34;;;;;;;;;;;31.60;78.70;;;;;;5076389;28;19912;-67
2022/07/12 10:20:59;;;;;;;;;;;32.00;75.30;;;;;;5094687;28;19916;-68
2022/07/12 10:23:27;;;;;;;;;;;31.90;75.10;;;;;;5094419;28;20426;-67
2022/07/12 10:25:53;;;;;;;;;;;31.60;75.80;;;;;;5094351;28;19908;-67
2022/07/12 10:28:18;;;;;;;;;;;31.60;74.70;;;;;;5076195;28;19908;-67
2022/07/12 10:30:45;;;;;;;;;;;32.10;73.30;;;;;;5055955;28;19974;-67
2022/07/12 10:33:15;;;;;;;;;;;30.60;73.90;;;;;;5073898;28;20267;-68
2022/07/12 10:35:56;;;;;;;;;;;29.60;76.70;;;;;;5074174;28;20384;-67
2022/07/12 10:38:22;;;;;;;;;;;30.00;75.80;;;;;;5074190;28;20379;-68
2022/07/12 10:40:49;;;;;;;;;;;29.70;76.60;;;;;;5073797;28;19915;-67
2022/07/12 10:43:16;;;;;;;;;;;30.10;77.10;;;;;;5072455;28;19928;-68
2022/07/12 10:45:42;;;;;;;;;;;30.40;75.50;;;;;;5087545;28;19919;-68
2022/07/12 10:48:17;;;;;;;;;;;31.10;75.40;;;;;;5094060;28;20045;-68
2022/07/12 10:53:23;;;;;;;;;;;30.20;71.70;;;;;;5070413;28;19917;-72
2022/07/12 10:56:06;;;;;;;;;;;29.80;75.00;;;;;;5066631;28;19919;-69
2022/07/12 10:58:33;;;;;;;;;;;29.10;74.90;;;;;;5070748;28;19920;-69
2022/07/12 11:00:59;;;;;;;;;;;28.60;75.50;;;;;;5070669;28;19909;-69
2022/07/12 11:03:30;;;;;;;;;;;28.50;75.90;;;;;;5070653;28;20209;-69
2022/07/12 11:06:01;;;;;;;;;;;29.00;76.50;;;;;;5070501;28;19916;-69
2022/07/12 11:08:27;;;;;;;;;;;28.90;75.60;;;;;;5070810;28;19913;-69
2022/07/12 11:10:54;;;;;;;;;;;28.90;76.40;;;;;;5070494;28;19909;-69
2022/07/12 11:13:21;;;;;;;;;;;29.50;75.00;;;;;;5070440;28;20422;-69
2022/07/12 11:16:02;;;;;;;;;;;30.20;74.40;;;;;;5070414;28;19918;-69
2022/07/12 11:18:31;;;;;;;;;;;29.80;72.90;;;;;;5070721;28;19948;-69
2022/07/12 11:20:57;;;;;;;;;;;29.40;76.30;;;;;;5070561;28;20370;-69
2022/07/12 11:23:24;;;;;;;;;;;29.60;77.40;;;;;;5070243;28;19913;-70
2022/07/12 11:25:50;;;;;;;;;;;29.60;76.80;;;;;;5070195;28;19909;-69
2022/07/12 11:28:15;;;;;;;;;;;29.20;77.80;;;;;;5070421;28;20004;-69
2022/07/12 11:30:49;;;;;;;;;;;29.50;77.30;;;;;;5069012;28;19915;-69
2022/07/12 11:33:14;;;;;;;;;;;29.40;75.60;;;;;;5068800;28;19920;-69
2022/07/12 11:35:43;;;;;;;;;;;29.40;73.90;;;;;;5060533;28;19909;-69
2022/07/12 11:38:08;;;;;;;;;;;29.50;75.30;;;;;;5058786;28;19920;-69
2022/07/12 11:40:33;;;;;;;;;;;29.10;74.90;;;;;;5069923;28;19909;-68
2022/07/12 11:43:00;;;;;;;;;;;29.10;74.20;;;;;;5069799;28;19908;-69
2022/07/12 11:45:27;;;;;;;;;;;29.10;73.50;;;;;;5070090;28;19916;-68
2022/07/12 11:47:53;;;;;;;;;;;28.60;76.30;;;;;;5069949;28;19912;-69
2022/07/12 11:50:19;;;;;;;;;;;28.50;78.00;;;;;;5069688;28;20336;-68
2022/07/12 11:52:45;;;;;;;;;;;28.70;78.70;;;;;;5079386;28;19927;-69
2022/07/12 11:55:10;;;;;;;;;;;29.10;74.80;;;;;;5083421;28;19909;-69
2022/07/12 11:57:36;;;;;;;;;;;28.60;74.50;;;;;;5090049;28;19908;-68
2022/07/12 12:00:17;;;;;;;;;;;29.10;74.40;;;;;;5089835;28;19912;-69
2022/07/12 12:02:43;;;;;;;;;;;29.10;73.00;;;;;;5087718;28;19912;-69
2022/07/12 12:05:09;;;;;;;;;;;28.80;72.90;;;;;;5066772;28;20047;-69
2022/07/12 12:07:35;;;;;;;;;;;29.60;72.50;;;;;;5064749;28;20132;-69
2022/07/12 12:10:17;;;;;;;;;;;29.80;72.80;;;;;;5058308;28;19915;-69
2022/07/12 12:12:45;;;;;;;;;;;29.60;73.70;;;;;;5076249;28;19916;-69
2022/07/12 12:15:11;;;;;;;;;;;29.10;74.40;;;;;;5076297;28;20416;-69
2022/07/12 12:17:42;;;;;;;;;;;29.20;77.20;;;;;;5076205;28;20392;-69
2022/07/12 12:20:10;;;;;;;;;;;29.20;74.70;;;;;;5075917;28;19909;-69
2022/07/12 12:22:36;;;;;;;;;;;29.60;77.80;;;;;;5075862;28;20342;-69
2022/07/12 12:25:03;;;;;;;;;;;29.60;73.70;;;;;;5075823;28;19908;-68
2022/07/12 12:27:28;;;;;;;;;;;29.80;73.90;;;;;;5075790;28;19991;-69
2022/07/12 12:29:58;;;;;;;;;;;29.80;73.90;;;;;;5075945;28;19955;-69
2022/07/12 12:32:23;;;;;;;;;;;29.90;74.00;;;;;;5069324;28;19916;-69
2022/07/12 12:35:04;;;;;;;;;;;30.00;74.80;;;;;;5065624;28;19913;-69
2022/07/12 12:37:30;;;;;;;;;;;29.20;74.60;;;;;;5055579;28;19916;-68
2022/07/12 12:39:56;;;;;;;;;;;29.50;76.60;;;;;;5055570;28;20287;-68
2022/07/12 12:42:24;;;;;;;;;;;29.20;75.70;;;;;;5055520;28;19999;-68
2022/07/12 12:44:50;;;;;;;;;;;29.30;75.90;;;;;;5055488;28;19916;-68
2022/07/12 12:47:31;;;;;;;;;;;29.00;74.10;;;;;;5037620;28;19909;-68
2022/07/12 12:49:57;;;;;;;;;;;29.10;74.90;;;;;;5060874;28;19912;-68
2022/07/12 12:52:23;;;;;;;;;;;29.00;75.30;;;;;;5055066;28;20453;-68
2022/07/12 12:54:49;;;;;;;;;;;29.00;74.70;;;;;;5055326;28;19909;-68
2022/07/12 12:57:15;;;;;;;;;;;29.00;73.90;;;;;;5055500;28;19916;-68
2022/07/12 12:59:40;;;;;;;;;;;29.10;72.20;;;;;;5055509;28;19916;-68
2022/07/12 13:02:07;;;;;;;;;;;28.90;73.30;;;;;;5055124;28;19999;-68
2022/07/12 13:04:33;;;;;;;;;;;29.70;72.20;;;;;;5055113;28;20268;-68
2022/07/12 13:06:59;;;;;;;;;;;29.40;69.40;;;;;;5037542;28;20320;-68
2022/07/12 13:09:25;;;;;;;;;;;29.50;71.40;;;;;;5037062;28;19951;-68
2022/07/12 13:11:50;;;;;;;;;;;29.70;74.60;;;;;;5055114;28;19962;-68
2022/07/12 13:14:16;;;;;;;;;;;29.60;75.20;;;;;;5054843;28;20359;-68
2022/07/12 13:16:41;;;;;;;;;;;29.70;73.90;;;;;;5054165;28;20433;-68
2022/07/12 13:19:07;;;;;;;;;;;30.00;73.20;;;;;;5054703;28;19909;-69
2022/07/12 13:21:33;;;;;;;;;;;30.00;69.50;;;;;;5055019;28;19948;-69
2022/07/12 13:23:58;;;;;;;;;;;29.60;70.20;;;;;;5054626;28;19908;-68
2022/07/12 13:26:24;;;;;;;;;;;29.70;71.70;;;;;;5054929;28;19909;-68
2022/07/12 13:28:49;;;;;;;;;;;29.70;70.80;;;;;;5054654;28;19952;-68
2022/07/12 13:31:15;;;;;;;;;;;29.50;71.40;;;;;;5054518;28;19915;-68
2022/07/12 13:33:41;;;;;;;;;;;29.60;72.60;;;;;;5054561;28;19931;-68
2022/07/12 13:36:06;;;;;;;;;;;29.90;70.10;;;;;;5054437;28;20426;-68
2022/07/12 13:38:32;;;;;;;;;;;30.20;70.50;;;;;;5054629;28;19920;-68
2022/07/12 13:40:58;;;;;;;;;;;30.20;68.70;;;;;;5036800;28;19915;-68
2022/07/12 13:43:23;;;;;;;;;;;30.00;65.80;;;;;;5054274;28;20264;-68
2022/07/12 13:45:49;;;;;;;;;;;30.00;67.10;;;;;;5054265;28;19916;-68
2022/07/12 13:48:15;;;;;;;;;;;29.60;65.20;;;;;;5064728;28;20366;-68
2022/07/12 13:50:40;;;;;;;;;;;29.80;65.50;;;;;;5074126;28;19915;-68
2022/07/12 13:53:07;;;;;;;;;;;29.70;68.00;;;;;;5073802;28;19921;-68
2022/07/12 13:55:33;;;;;;;;;;;29.20;68.40;;;;;;5056659;28;19920;-68
2022/07/12 13:57:59;;;;;;;;;;;29.50;69.40;;;;;;5074179;28;19909;-68
2022/07/12 14:00:24;;;;;;;;;;;29.70;67.90;;;;;;5074209;28;19997;-68
2022/07/12 14:02:50;;;;;;;;;;;29.70;67.80;;;;;;5073909;28;20325;-68
2022/07/12 14:05:16;;;;;;;;;;;29.90;68.80;;;;;;5073982;28;19908;-69
2022/07/12 14:07:43;;;;;;;;;;;30.10;69.40;;;;;;5073912;28;19909;-68
2022/07/12 14:10:09;;;;;;;;;;;30.20;67.50;;;;;;5074051;28;19912;-68
2022/07/12 14:12:34;;;;;;;;;;;30.70;65.20;;;;;;5073700;28;20337;-68
2022/07/12 14:15:19;;;;;;;;;;;30.60;65.00;;;;;;5063530;28;19913;-68
2022/07/12 14:17:47;;;;;;;;;;;30.40;63.50;;;;;;5053936;28;20366;-67
2022/07/12 14:20:13;;;;;;;;;;;30.80;63.60;;;;;;5053988;28;20423;-67
2022/07/12 14:22:39;;;;;;;;;;;30.90;64.90;;;;;;5036152;28;19971;-67